createdAt,value
2018-01-19T00:00:08.278Z,1.82
2018-01-19T00:01:08.210Z,1.87
2018-01-19T00:02:08.099Z,1.87
2018-01-19T00:03:08.073Z,1.86
2018-01-19T00:04:07.927Z,1.94
2018-01-19T00:05:07.852Z,1.95
2018-01-19T00:06:07.787Z,1.99
2018-01-19T00:07:07.685Z,1.98
2018-01-19T00:08:07.598Z,2.02
2018-01-19T00:09:07.550Z,1.99
2018-01-19T00:10:07.483Z,2.01
2018-01-19T00:11:07.396Z,1.87
2018-01-19T00:12:07.289Z,1.92
2018-01-19T00:13:07.208Z,1.98
2018-01-19T00:14:07.115Z,2.03
2018-01-19T00:15:07.057Z,2.12
2018-01-19T00:16:06.982Z,2.02
2018-01-19T00:17:06.854Z,2.05
2018-01-19T00:18:06.815Z,2.01
2018-01-19T00:19:06.730Z,2.05
2018-01-19T00:20:06.620Z,2.16
2018-01-19T00:21:06.513Z,2.03
2018-01-19T00:22:06.424Z,1.95
2018-01-19T00:23:06.343Z,2.01
2018-01-19T00:24:06.297Z,2.12
2018-01-19T00:25:06.170Z,1.99
2018-01-19T00:26:06.121Z,1.99
2018-01-19T00:27:06.007Z,2.05
2018-01-19T00:28:05.927Z,2.05
2018-01-19T00:29:05.834Z,2.10
2018-01-19T00:30:05.785Z,2.05
2018-01-19T00:31:05.701Z,2.13
2018-01-19T00:32:05.580Z,2.20
2018-01-19T00:33:05.518Z,2.16
2018-01-19T00:34:05.460Z,2.28
2018-01-19T00:35:05.333Z,2.37
2018-01-19T00:36:05.281Z,2.35
2018-01-19T00:37:05.162Z,2.44
2018-01-19T00:38:05.116Z,2.42
2018-01-19T00:39:04.998Z,2.49
2018-01-19T00:40:04.952Z,2.50
2018-01-19T00:41:04.828Z,2.56
2018-01-19T00:42:04.745Z,2.62
2018-01-19T00:43:04.678Z,2.66
2018-01-19T00:44:04.574Z,2.68
2018-01-19T00:45:04.517Z,2.84
2018-01-19T00:46:04.417Z,2.85
2018-01-19T00:47:04.355Z,2.89
2018-01-19T00:48:04.238Z,2.95
2018-01-19T00:49:04.161Z,2.93
2018-01-19T00:50:04.105Z,2.89
2018-01-19T00:51:03.989Z,2.91
2018-01-19T00:52:03.904Z,3.04
2018-01-19T00:53:03.826Z,2.99
2018-01-19T00:54:03.786Z,3.03
2018-01-19T00:55:03.671Z,3.17
2018-01-19T00:56:03.611Z,3.11
2018-01-19T00:57:03.512Z,3.17
2018-01-19T00:58:03.399Z,3.17
2018-01-19T00:59:03.318Z,3.14
2018-01-19T01:00:03.234Z,3.16
2018-01-19T01:01:03.149Z,3.16
2018-01-19T01:02:03.123Z,3.21
2018-01-19T01:03:03.035Z,3.19
2018-01-19T01:04:02.934Z,3.27
2018-01-19T01:05:02.824Z,3.27
2018-01-19T01:06:02.791Z,3.28
2018-01-19T01:07:02.649Z,3.37
2018-01-19T01:08:02.597Z,3.39
2018-01-19T01:09:02.508Z,3.41
2018-01-19T01:10:02.394Z,3.43
2018-01-19T01:11:02.316Z,3.48
2018-01-19T01:12:02.229Z,3.51
2018-01-19T01:13:02.185Z,3.57
2018-01-19T01:14:02.064Z,3.59
2018-01-19T01:15:01.991Z,3.62
2018-01-19T01:16:01.893Z,3.64
2018-01-19T01:17:01.891Z,3.74
2018-01-19T01:18:01.734Z,3.64
2018-01-19T01:19:01.660Z,3.64
2018-01-19T01:20:01.565Z,3.71
2018-01-19T01:21:01.523Z,3.79
2018-01-19T01:22:01.452Z,3.71
2018-01-19T01:23:01.310Z,3.79
2018-01-19T01:24:01.255Z,3.79
2018-01-19T01:25:01.143Z,3.75
2018-01-19T01:26:01.083Z,3.80
2018-01-19T01:27:00.974Z,3.80
2018-01-19T01:28:00.930Z,3.84
2018-01-19T01:29:00.802Z,3.79
2018-01-19T01:30:00.769Z,3.79
2018-01-19T01:31:00.679Z,3.84
2018-01-19T01:32:00.600Z,3.83
2018-01-19T01:33:00.503Z,3.87
2018-01-19T01:34:00.450Z,3.84
2018-01-19T01:35:00.306Z,3.84
2018-01-19T01:36:00.249Z,3.92
2018-01-19T01:37:00.148Z,3.84
2018-01-19T01:38:00.054Z,3.87
2018-01-19T01:38:59.986Z,3.86
2018-01-19T01:39:59.884Z,3.86
2018-01-19T01:40:59.804Z,3.82
2018-01-19T01:41:59.727Z,3.86
2018-01-19T01:42:59.683Z,3.86
2018-01-19T01:43:59.579Z,3.82
2018-01-19T01:44:59.492Z,3.75
2018-01-19T01:45:59.387Z,3.74
2018-01-19T01:46:59.299Z,3.71
2018-01-19T01:47:59.226Z,3.75
2018-01-19T01:48:59.133Z,3.75
2018-01-19T01:49:59.085Z,3.65
2018-01-19T01:50:58.965Z,3.69
2018-01-19T01:51:58.916Z,3.72
2018-01-19T01:52:58.802Z,3.69
2018-01-19T01:53:58.717Z,3.64
2018-01-19T01:54:58.650Z,3.50
2018-01-19T01:55:58.619Z,3.44
2018-01-19T01:56:58.481Z,3.39
2018-01-19T01:57:58.388Z,3.28
2018-01-19T01:58:58.310Z,3.19
2018-01-19T01:59:58.245Z,3.10
2018-01-19T02:00:58.170Z,3.07
2018-01-19T02:01:58.079Z,2.99
2018-01-19T02:02:57.969Z,2.99
2018-01-19T02:03:57.892Z,2.93
2018-01-19T02:04:57.801Z,2.88
2018-01-19T02:05:57.717Z,2.86
2018-01-19T02:06:57.689Z,2.84
2018-01-19T02:07:57.591Z,2.85
2018-01-19T02:08:57.479Z,2.67
2018-01-19T02:09:57.379Z,2.66
2018-01-19T02:10:57.362Z,2.60
2018-01-19T02:11:57.213Z,2.50
2018-01-19T02:12:57.133Z,2.53
2018-01-19T02:13:57.046Z,2.46
2018-01-19T02:14:56.991Z,2.49
2018-01-19T02:15:56.881Z,2.48
2018-01-19T02:16:56.852Z,2.39
2018-01-19T02:17:56.727Z,2.39
2018-01-19T02:18:56.658Z,2.34
2018-01-19T02:19:56.582Z,2.39
2018-01-19T02:20:56.459Z,2.44
2018-01-19T02:21:56.372Z,2.38
2018-01-19T02:22:56.294Z,2.38
2018-01-19T02:23:56.214Z,2.37
2018-01-19T02:24:56.150Z,2.35
2018-01-19T02:25:56.048Z,2.37
2018-01-19T02:26:55.964Z,2.30
2018-01-19T02:27:55.871Z,2.31
2018-01-19T02:28:55.785Z,2.35
2018-01-19T02:29:55.731Z,2.37
2018-01-19T02:30:55.618Z,2.38
2018-01-19T02:31:55.551Z,2.26
2018-01-19T02:32:55.512Z,2.20
2018-01-19T02:33:55.417Z,2.21
2018-01-19T02:34:55.292Z,2.13
2018-01-19T02:35:55.204Z,2.13
2018-01-19T02:36:55.113Z,2.03
2018-01-19T02:37:55.037Z,1.82
2018-01-19T02:38:54.946Z,1.64
2018-01-19T02:39:54.866Z,1.58
2018-01-19T02:40:54.781Z,1.50
2018-01-19T02:41:54.730Z,1.50
2018-01-19T02:42:54.624Z,1.43
2018-01-19T02:43:54.560Z,1.30
2018-01-19T02:44:54.494Z,1.28
2018-01-19T02:45:54.359Z,1.40
2018-01-19T02:46:54.276Z,1.41
2018-01-19T02:47:54.214Z,1.43
2018-01-19T02:48:54.106Z,1.37
2018-01-19T02:49:54.023Z,1.44
2018-01-19T02:50:53.942Z,1.40
2018-01-19T02:51:53.893Z,1.41
2018-01-19T02:52:53.768Z,1.44
2018-01-19T02:53:53.700Z,1.44
2018-01-19T02:54:53.646Z,1.52
2018-01-19T02:55:53.515Z,1.48
2018-01-19T02:56:53.433Z,1.54
2018-01-19T02:57:53.400Z,1.62
2018-01-19T02:58:53.276Z,1.58
2018-01-19T02:59:53.181Z,1.66
2018-01-19T03:00:53.121Z,1.74
2018-01-19T03:01:53.013Z,1.80
2018-01-19T03:02:52.974Z,1.80
2018-01-19T03:03:52.861Z,1.86
2018-01-19T03:04:52.759Z,1.90
2018-01-19T03:05:52.672Z,1.98
2018-01-19T03:06:52.593Z,1.98
2018-01-19T03:07:52.534Z,1.91
2018-01-19T03:08:52.437Z,2.01
2018-01-19T03:09:52.337Z,1.99
2018-01-19T03:10:52.263Z,1.92
2018-01-19T03:11:52.195Z,1.95
2018-01-19T03:12:52.084Z,2.06
2018-01-19T03:13:52.000Z,2.05
2018-01-19T03:14:51.914Z,2.02
2018-01-19T03:15:51.879Z,2.01
2018-01-19T03:16:51.761Z,1.95
2018-01-19T03:17:51.692Z,1.98
2018-01-19T03:18:51.608Z,1.95
2018-01-19T03:19:51.527Z,1.94
2018-01-19T03:20:51.448Z,1.92
2018-01-19T03:21:51.331Z,1.99
2018-01-19T03:22:51.276Z,1.95
2018-01-19T03:23:51.162Z,1.90
2018-01-19T03:24:51.074Z,1.87
2018-01-19T03:25:50.987Z,1.91
2018-01-19T03:26:50.907Z,1.87
2018-01-19T03:27:50.850Z,1.82
2018-01-19T03:28:50.736Z,1.83
2018-01-19T03:29:50.681Z,1.77
2018-01-19T03:30:50.581Z,1.62
2018-01-19T03:31:50.524Z,1.77
2018-01-19T03:32:50.411Z,1.77
2018-01-19T03:33:50.310Z,1.76
2018-01-19T03:34:50.267Z,1.76
2018-01-19T03:35:50.145Z,1.80
2018-01-19T03:36:50.122Z,1.65
2018-01-19T03:37:49.978Z,1.65
2018-01-19T03:38:49.922Z,1.66
2018-01-19T03:39:49.834Z,1.62
2018-01-19T03:40:49.753Z,1.68
2018-01-19T03:41:49.642Z,1.69
2018-01-19T03:42:49.574Z,1.66
2018-01-19T03:43:49.470Z,1.80
2018-01-19T03:44:49.408Z,1.59
2018-01-19T03:45:49.306Z,1.72
2018-01-19T03:46:49.222Z,1.72
2018-01-19T03:47:49.161Z,1.55
2018-01-19T03:48:49.056Z,1.62
2018-01-19T03:49:48.962Z,1.55
2018-01-19T03:50:48.878Z,1.64
2018-01-19T03:51:48.795Z,1.52
2018-01-19T03:52:48.746Z,1.50
2018-01-19T03:53:48.624Z,1.54
2018-01-19T03:54:48.568Z,1.48
2018-01-19T03:55:48.490Z,1.48
2018-01-19T03:56:48.414Z,1.48
2018-01-19T03:57:48.284Z,1.55
2018-01-19T03:58:48.237Z,1.50
2018-01-19T03:59:48.142Z,1.48
2018-01-19T04:00:48.038Z,1.50
2018-01-19T04:01:48.000Z,1.44
2018-01-19T04:02:47.864Z,1.48
2018-01-19T04:03:47.830Z,1.46
2018-01-19T04:04:47.702Z,1.48
2018-01-19T04:05:47.610Z,1.56
2018-01-19T04:06:47.532Z,1.56
2018-01-19T04:07:47.445Z,1.56
2018-01-19T04:08:47.360Z,1.61
2018-01-19T04:09:47.271Z,1.69
2018-01-19T04:10:47.197Z,1.69
2018-01-19T04:11:47.170Z,1.64
2018-01-19T04:12:47.040Z,1.64
2018-01-19T04:13:46.944Z,1.59
2018-01-19T04:14:46.851Z,1.72
2018-01-19T04:15:46.766Z,1.68
2018-01-19T04:16:46.710Z,1.68
2018-01-19T04:17:46.631Z,1.76
2018-01-19T04:18:46.557Z,1.73
2018-01-19T04:19:46.441Z,1.79
2018-01-19T04:20:46.408Z,1.80
2018-01-19T04:21:46.285Z,1.84
2018-01-19T04:22:46.179Z,1.87
2018-01-19T04:23:46.118Z,1.87
2018-01-19T04:24:46.011Z,1.95
2018-01-19T04:25:45.925Z,2.01
2018-01-19T04:26:45.880Z,1.98
2018-01-19T04:27:45.760Z,2.02
2018-01-19T04:28:45.698Z,2.02
2018-01-19T04:29:45.621Z,2.05
2018-01-19T04:30:45.502Z,2.13
2018-01-19T04:31:45.448Z,2.01
2018-01-19T04:32:45.332Z,2.02
2018-01-19T04:33:45.246Z,2.13
2018-01-19T04:34:45.195Z,2.02
2018-01-19T04:35:45.081Z,2.06
2018-01-19T04:36:45.028Z,2.12
2018-01-19T04:37:44.916Z,2.13
2018-01-19T04:38:44.828Z,2.09
2018-01-19T04:39:44.738Z,2.09
2018-01-19T04:40:44.684Z,2.10
2018-01-19T04:41:44.572Z,2.14
2018-01-19T04:42:44.517Z,2.06
2018-01-19T04:43:44.405Z,2.01
2018-01-19T04:44:44.318Z,2.06
2018-01-19T04:45:44.235Z,2.10
2018-01-19T04:46:44.160Z,2.01
2018-01-19T04:47:44.064Z,2.06
2018-01-19T04:48:43.982Z,2.05
2018-01-19T04:49:43.897Z,2.05
2018-01-19T04:50:43.816Z,2.12
2018-01-19T04:51:43.734Z,2.10
2018-01-19T04:52:43.642Z,2.13
2018-01-19T04:53:43.615Z,2.12
2018-01-19T04:54:43.472Z,2.19
2018-01-19T04:55:43.454Z,2.20
2018-01-19T04:56:43.311Z,2.21
2018-01-19T04:57:43.266Z,2.20
2018-01-19T04:58:43.168Z,2.24
2018-01-19T04:59:43.077Z,2.23
2018-01-19T05:00:42.981Z,2.24
2018-01-19T05:01:42.944Z,2.26
2018-01-19T05:02:42.859Z,2.35
2018-01-19T05:03:42.729Z,2.35
2018-01-19T05:04:42.627Z,2.37
2018-01-19T05:05:42.604Z,2.37
2018-01-19T05:06:42.512Z,2.37
2018-01-19T05:07:42.405Z,2.42
2018-01-19T05:08:42.295Z,2.44
2018-01-19T05:09:42.245Z,2.41
2018-01-19T05:10:42.132Z,2.48
2018-01-19T05:11:42.063Z,2.46
2018-01-19T05:12:41.959Z,2.52
2018-01-19T05:13:41.875Z,2.56
2018-01-19T05:14:41.825Z,2.57
2018-01-19T05:15:41.713Z,2.53
2018-01-19T05:16:41.649Z,2.55
2018-01-19T05:17:41.549Z,2.68
2018-01-19T05:18:41.447Z,2.68
2018-01-19T05:19:41.368Z,2.63
2018-01-19T05:20:41.284Z,2.66
2018-01-19T05:21:41.243Z,2.66
2018-01-19T05:22:41.165Z,2.71
2018-01-19T05:23:41.076Z,2.81
2018-01-19T05:24:40.938Z,2.85
2018-01-19T05:25:40.894Z,2.81
2018-01-19T05:26:40.809Z,2.78
2018-01-19T05:27:40.692Z,2.75
2018-01-19T05:28:40.605Z,2.88
2018-01-19T05:29:40.527Z,2.78
2018-01-19T05:30:40.440Z,2.86
2018-01-19T05:31:40.409Z,2.91
2018-01-19T05:32:40.313Z,2.89
2018-01-19T05:33:40.191Z,2.89
2018-01-19T05:34:40.102Z,2.86
2018-01-19T05:35:40.013Z,2.91
2018-01-19T05:36:39.928Z,2.92
2018-01-19T05:37:39.902Z,2.84
2018-01-19T05:38:39.827Z,2.91
2018-01-19T05:39:39.680Z,2.85
2018-01-19T05:40:39.627Z,2.85
2018-01-19T05:41:39.540Z,2.91
2018-01-19T05:42:39.422Z,2.91
2018-01-19T05:43:39.345Z,2.89
2018-01-19T05:44:39.498Z,2.93
2018-01-19T05:45:39.175Z,2.84
2018-01-19T05:46:39.099Z,2.96
2018-01-19T05:47:39.008Z,2.98
2018-01-19T05:48:38.929Z,3.04
2018-01-19T05:49:38.861Z,3.04
2018-01-19T05:50:38.772Z,2.93
2018-01-19T05:51:38.735Z,3.09
2018-01-19T05:52:38.588Z,2.93
2018-01-19T05:53:38.539Z,3.03
2018-01-19T05:54:38.450Z,2.93
2018-01-19T05:55:38.368Z,2.99
2018-01-19T05:56:38.282Z,2.98
2018-01-19T05:57:38.189Z,3.03
2018-01-19T05:58:38.106Z,2.99
2018-01-19T05:59:38.055Z,2.98
2018-01-19T06:00:38.004Z,2.86
2018-01-19T06:01:37.834Z,3.01
2018-01-19T06:02:37.824Z,2.95
2018-01-19T06:03:37.711Z,3.03
2018-01-19T06:04:37.693Z,3.03
2018-01-19T06:05:37.609Z,3.04
2018-01-19T06:06:37.433Z,2.98
2018-01-19T06:07:37.338Z,3.06
2018-01-19T06:08:37.278Z,3.06
2018-01-19T06:09:37.175Z,3.04
2018-01-19T06:10:37.202Z,3.01
2018-01-19T06:11:36.985Z,3.06
2018-01-19T06:12:36.980Z,3.04
2018-01-19T06:13:36.922Z,3.06
2018-01-19T06:14:36.775Z,3.07
2018-01-19T06:15:37.103Z,3.04
2018-01-19T06:16:36.652Z,3.09
2018-01-19T06:17:36.623Z,3.03
2018-01-19T06:18:36.480Z,3.03
2018-01-19T06:19:36.353Z,3.06
2018-01-19T06:20:36.318Z,2.98
2018-01-19T06:21:36.250Z,3.06
2018-01-19T06:22:36.130Z,3.03
2018-01-19T06:23:36.000Z,3.06
2018-01-19T06:24:35.958Z,3.01
2018-01-19T06:25:35.844Z,3.01
2018-01-19T06:26:35.832Z,3.03
2018-01-19T06:27:35.648Z,2.96
2018-01-19T06:28:35.563Z,3.01
2018-01-19T06:29:35.502Z,3.01
2018-01-19T06:30:35.460Z,3.04
2018-01-19T06:31:35.381Z,3.06
2018-01-19T06:32:35.265Z,3.04
2018-01-19T06:33:35.182Z,3.04
2018-01-19T06:34:35.062Z,3.07
2018-01-19T06:35:34.993Z,3.04
2018-01-19T06:36:34.978Z,3.09
2018-01-19T06:37:34.804Z,2.98
2018-01-19T06:38:34.801Z,2.98
2018-01-19T06:39:34.666Z,3.04
2018-01-19T06:40:34.657Z,2.98
2018-01-19T06:41:34.457Z,2.93
2018-01-19T06:42:34.400Z,3.01
2018-01-19T06:43:34.348Z,2.96
2018-01-19T06:44:34.251Z,3.07
2018-01-19T06:45:34.162Z,3.01
2018-01-19T06:46:34.126Z,2.93
2018-01-19T06:47:33.987Z,3.01
2018-01-19T06:48:33.880Z,3.04
2018-01-19T06:49:33.852Z,2.99
2018-01-19T06:50:33.773Z,2.93
2018-01-19T06:51:33.714Z,2.96
2018-01-19T06:52:33.570Z,2.96
2018-01-19T06:53:33.496Z,2.95
2018-01-19T06:54:33.402Z,2.96
2018-01-19T06:55:33.322Z,2.92
2018-01-19T06:56:33.211Z,3.01
2018-01-19T06:57:33.176Z,2.98
2018-01-19T06:58:33.125Z,3.01
2018-01-19T06:59:33.027Z,2.99
2018-01-19T07:00:32.915Z,2.92
2018-01-19T07:01:32.895Z,2.91
2018-01-19T07:02:32.688Z,2.96
2018-01-19T07:03:32.702Z,2.99
2018-01-19T07:04:32.557Z,3.01
2018-01-19T07:05:32.514Z,2.85
2018-01-19T07:06:32.396Z,2.88
2018-01-19T07:07:32.379Z,2.81
2018-01-19T07:08:32.252Z,2.86
2018-01-19T07:09:32.155Z,2.86
2018-01-19T07:10:32.097Z,2.84
2018-01-19T07:11:31.981Z,2.88
2018-01-19T07:12:31.965Z,2.89
2018-01-19T07:13:31.840Z,2.86
2018-01-19T07:14:31.731Z,2.80
2018-01-19T07:15:31.664Z,2.85
2018-01-19T07:16:31.534Z,2.93
2018-01-19T07:17:31.488Z,2.99
2018-01-19T07:18:31.389Z,2.93
2018-01-19T07:19:31.310Z,2.96
2018-01-19T07:20:31.281Z,2.93
2018-01-19T07:21:31.134Z,2.95
2018-01-19T07:22:31.010Z,2.99
2018-01-19T07:23:30.940Z,2.92
2018-01-19T07:24:30.879Z,2.91
2018-01-19T07:25:30.797Z,2.96
2018-01-19T07:26:30.745Z,2.85
2018-01-19T07:27:30.606Z,2.80
2018-01-19T07:28:30.546Z,2.84
2018-01-19T07:29:30.481Z,2.84
2018-01-19T07:30:30.436Z,2.80
2018-01-19T07:31:30.326Z,2.88
2018-01-19T07:32:30.240Z,2.88
2018-01-19T07:33:30.150Z,2.81
2018-01-19T07:34:29.995Z,2.85
2018-01-19T07:35:30.004Z,2.86
2018-01-19T07:36:29.868Z,2.86
2018-01-19T07:37:29.780Z,2.93
2018-01-19T07:38:29.765Z,2.95
2018-01-19T07:39:29.601Z,2.99
2018-01-19T07:40:29.506Z,3.06
2018-01-19T07:41:29.432Z,3.07
2018-01-19T07:42:29.395Z,3.16
2018-01-19T07:43:29.280Z,3.11
2018-01-19T07:44:29.240Z,3.16
2018-01-19T07:45:29.141Z,3.16
2018-01-19T07:46:29.033Z,3.19
2018-01-19T07:47:29.034Z,3.39
2018-01-19T07:48:28.888Z,3.28
2018-01-19T07:49:28.766Z,3.27
2018-01-19T07:50:28.704Z,3.31
2018-01-19T07:51:28.605Z,3.27
2018-01-19T07:52:28.552Z,3.29
2018-01-19T07:53:28.459Z,3.28
2018-01-19T07:54:28.380Z,3.34
2018-01-19T07:55:28.340Z,3.24
2018-01-19T07:56:28.195Z,3.21
2018-01-19T07:57:28.094Z,3.19
2018-01-19T07:58:28.057Z,3.24
2018-01-19T07:59:27.927Z,3.16
2018-01-19T08:00:27.875Z,3.13
2018-01-19T08:01:27.805Z,3.19
2018-01-19T08:02:27.693Z,3.21
2018-01-19T08:03:27.575Z,3.27
2018-01-19T08:04:27.490Z,3.21
2018-01-19T08:05:27.448Z,3.17
2018-01-19T08:06:27.318Z,3.21
2018-01-19T08:07:27.262Z,3.16
2018-01-19T08:08:27.205Z,3.28
2018-01-19T08:09:27.084Z,3.37
2018-01-19T08:10:27.042Z,3.43
2018-01-19T08:11:26.938Z,3.48
2018-01-19T08:12:26.897Z,3.59
2018-01-19T08:13:26.805Z,3.57
2018-01-19T08:14:26.713Z,3.59
2018-01-19T08:15:26.633Z,3.68
2018-01-19T08:16:26.636Z,3.74
2018-01-19T08:17:26.420Z,3.71
2018-01-19T08:18:26.343Z,3.74
2018-01-19T08:19:26.266Z,3.74
2018-01-19T08:20:26.226Z,3.87
2018-01-19T08:21:26.091Z,3.87
2018-01-19T08:22:26.065Z,4.05
2018-01-19T08:23:25.986Z,4.15
2018-01-19T08:24:25.822Z,4.32
2018-01-19T08:25:25.800Z,4.47
2018-01-19T08:26:25.640Z,4.64
2018-01-19T08:27:25.591Z,4.79
2018-01-19T08:28:25.558Z,4.92
2018-01-19T08:29:25.493Z,5.08
2018-01-19T08:30:25.496Z,5.20
2018-01-19T08:31:25.280Z,5.28
2018-01-19T08:32:25.218Z,5.35
2018-01-19T08:33:25.047Z,5.49
2018-01-19T08:34:25.032Z,5.52
2018-01-19T08:35:24.926Z,5.54
2018-01-19T08:36:24.828Z,5.78
2018-01-19T08:37:24.756Z,5.81
2018-01-19T08:38:24.696Z,5.89
2018-01-19T08:39:24.637Z,6.11
2018-01-19T08:40:24.552Z,6.10
2018-01-19T08:41:24.439Z,6.06
2018-01-19T08:42:24.338Z,5.88
2018-01-19T08:43:24.266Z,5.75
2018-01-19T08:44:24.156Z,5.62
2018-01-19T08:45:24.100Z,5.63
2018-01-19T08:46:24.034Z,5.41
2018-01-19T08:47:23.911Z,5.28
2018-01-19T08:48:23.862Z,5.13
2018-01-19T08:49:23.703Z,5.10
2018-01-19T08:50:23.711Z,4.87
2018-01-19T08:51:23.569Z,4.85
2018-01-19T08:52:23.529Z,4.68
2018-01-19T08:53:23.442Z,4.59
2018-01-19T08:54:23.374Z,4.56
2018-01-19T08:55:23.225Z,4.54
2018-01-19T08:56:23.238Z,4.44
2018-01-19T08:57:23.105Z,4.41
2018-01-19T08:58:23.062Z,4.34
2018-01-19T08:59:22.928Z,4.25
2018-01-19T09:00:22.858Z,4.19
2018-01-19T09:01:22.740Z,4.12
2018-01-19T09:02:22.627Z,4.11
2018-01-19T09:03:22.568Z,4.15
2018-01-19T09:04:22.528Z,4.11
2018-01-19T09:05:22.366Z,4.25
2018-01-19T09:06:22.298Z,4.11
2018-01-19T09:07:22.250Z,4.30
2018-01-19T09:08:22.211Z,4.46
2018-01-19T09:09:22.110Z,4.65
2018-01-19T09:10:21.972Z,4.85
2018-01-19T09:11:21.916Z,5.13
2018-01-19T09:12:21.817Z,5.18
2018-01-19T09:13:21.791Z,5.18
2018-01-19T09:14:21.622Z,5.16
2018-01-19T09:15:21.541Z,5.17
2018-01-19T09:16:21.499Z,5.23
2018-01-19T09:17:21.371Z,5.20
2018-01-19T09:18:21.336Z,5.16
2018-01-19T09:19:21.211Z,5.10
2018-01-19T09:20:21.128Z,5.08
2018-01-19T09:21:21.105Z,5.14
2018-01-19T09:22:20.943Z,5.28
2018-01-19T09:23:20.908Z,5.44
2018-01-19T09:24:20.775Z,5.59
2018-01-19T09:25:20.730Z,5.65
2018-01-19T09:26:20.655Z,5.62
2018-01-19T09:27:20.571Z,5.53
2018-01-19T09:28:20.485Z,5.53
2018-01-19T09:29:20.366Z,5.44
2018-01-19T09:30:20.295Z,5.29
2018-01-19T09:31:20.203Z,5.23
2018-01-19T09:32:20.178Z,5.06
2018-01-19T09:33:20.060Z,5.06
2018-01-19T09:34:19.957Z,5.02
2018-01-19T09:35:19.877Z,4.88
2018-01-19T09:36:19.792Z,4.74
2018-01-19T09:37:19.704Z,4.73
2018-01-19T09:38:19.625Z,4.68
2018-01-19T09:39:19.561Z,4.59
2018-01-19T09:40:19.453Z,4.58
2018-01-19T09:41:19.395Z,4.55
2018-01-19T09:42:19.286Z,4.46
2018-01-19T09:43:19.208Z,4.43
2018-01-19T09:44:19.122Z,4.36
2018-01-19T09:45:19.073Z,4.34
2018-01-19T09:46:18.968Z,4.25
2018-01-19T09:47:18.893Z,4.23
2018-01-19T09:48:18.790Z,4.18
2018-01-19T09:49:18.712Z,4.19
2018-01-19T09:50:18.646Z,4.19
2018-01-19T09:51:18.546Z,4.20
2018-01-19T09:52:18.491Z,4.20
2018-01-19T09:53:18.399Z,4.23
2018-01-19T09:54:18.294Z,4.20
2018-01-19T09:55:18.208Z,4.19
2018-01-19T09:56:18.149Z,4.12
2018-01-19T09:57:18.047Z,4.18
2018-01-19T09:58:17.976Z,4.08
2018-01-19T09:59:17.879Z,4.08
2018-01-19T10:00:17.788Z,4.04
2018-01-19T10:01:17.708Z,4.02
2018-01-19T10:02:17.662Z,3.93
2018-01-19T10:03:17.588Z,3.86
2018-01-19T10:04:17.461Z,3.94
2018-01-19T10:05:17.387Z,3.97
2018-01-19T10:06:17.354Z,3.86
2018-01-19T10:07:17.235Z,3.87
2018-01-19T10:08:17.174Z,3.90
2018-01-19T10:09:17.062Z,3.83
2018-01-19T10:10:16.958Z,3.92
2018-01-19T10:11:16.874Z,3.90
2018-01-19T10:12:16.789Z,3.89
2018-01-19T10:13:16.746Z,3.86
2018-01-19T10:14:16.624Z,4.04
2018-01-19T10:15:16.574Z,4.05
2018-01-19T10:16:16.516Z,4.02
2018-01-19T10:17:16.377Z,4.02
2018-01-19T10:18:16.287Z,4.00
2018-01-19T10:19:16.211Z,4.04
2018-01-19T10:20:16.122Z,4.23
2018-01-19T10:21:16.080Z,4.19
2018-01-19T10:22:15.956Z,4.20
2018-01-19T10:23:15.908Z,4.23
2018-01-19T10:24:15.812Z,4.20
2018-01-19T10:25:15.708Z,4.23
2018-01-19T10:26:15.624Z,4.16
2018-01-19T10:27:15.551Z,4.26
2018-01-19T10:28:15.459Z,4.19
2018-01-19T10:29:15.397Z,4.18
2018-01-19T10:30:15.317Z,4.19
2018-01-19T10:31:15.217Z,4.20
2018-01-19T10:32:15.124Z,4.19
2018-01-19T10:33:15.037Z,4.18
2018-01-19T10:34:14.974Z,4.12
2018-01-19T10:35:14.870Z,4.25
2018-01-19T10:36:14.797Z,4.11
2018-01-19T10:37:14.700Z,4.19
2018-01-19T10:38:14.643Z,4.19
2018-01-19T10:39:14.570Z,4.20
2018-01-19T10:40:14.462Z,4.20
2018-01-19T10:41:14.376Z,4.19
2018-01-19T10:42:14.294Z,4.20
2018-01-19T10:43:14.255Z,4.26
2018-01-19T10:44:14.130Z,4.20
2018-01-19T10:45:14.041Z,4.20
2018-01-19T10:46:14.015Z,4.22
2018-01-19T10:47:13.872Z,4.20
2018-01-19T10:48:13.786Z,4.19
2018-01-19T10:49:13.720Z,4.20
2018-01-19T10:50:13.627Z,4.25
2018-01-19T10:51:13.542Z,4.19
2018-01-19T10:52:13.450Z,4.22
2018-01-19T10:53:13.378Z,4.25
2018-01-19T10:54:13.322Z,4.26
2018-01-19T10:55:13.212Z,4.36
2018-01-19T10:56:13.199Z,4.32
2018-01-19T10:57:13.042Z,4.36
2018-01-19T10:58:12.967Z,4.43
2018-01-19T10:59:12.929Z,4.44
2018-01-19T11:00:12.810Z,4.52
2018-01-19T11:01:12.715Z,4.58
2018-01-19T11:02:12.647Z,4.58
2018-01-19T11:03:12.582Z,4.61
2018-01-19T11:04:12.451Z,4.61
2018-01-19T11:05:12.367Z,4.65
2018-01-19T11:06:12.332Z,4.59
2018-01-19T11:07:12.242Z,4.74
2018-01-19T11:08:12.119Z,4.74
2018-01-19T11:09:12.040Z,4.64
2018-01-19T11:10:11.969Z,4.69
2018-01-19T11:11:11.894Z,4.55
2018-01-19T11:12:11.820Z,4.58
2018-01-19T11:13:11.734Z,4.55
2018-01-19T11:14:11.637Z,4.55
2018-01-19T11:15:11.536Z,4.48
2018-01-19T11:16:11.460Z,4.50
2018-01-19T11:17:11.374Z,4.50
2018-01-19T11:18:11.283Z,4.55
2018-01-19T11:19:11.203Z,4.54
2018-01-19T11:20:11.179Z,4.47
2018-01-19T11:21:11.044Z,4.52
2018-01-19T11:22:10.951Z,4.52
2018-01-19T11:23:10.867Z,4.58
2018-01-19T11:24:10.813Z,4.61
2018-01-19T11:25:10.738Z,4.58
2018-01-19T11:26:10.629Z,4.61
2018-01-19T11:27:10.542Z,4.65
2018-01-19T11:28:10.452Z,4.64
2018-01-19T11:29:10.369Z,4.68
2018-01-19T11:30:10.286Z,4.64
2018-01-19T11:31:10.230Z,4.69
2018-01-19T11:32:10.146Z,4.76
2018-01-19T11:33:10.060Z,4.73
2018-01-19T11:34:09.954Z,4.68
2018-01-19T11:35:09.871Z,4.72
2018-01-19T11:36:09.792Z,4.65
2018-01-19T11:37:09.769Z,4.73
2018-01-19T11:38:09.630Z,4.68
2018-01-19T11:39:09.536Z,4.72
2018-01-19T11:40:09.485Z,4.72
2018-01-19T11:41:09.414Z,4.77
2018-01-19T11:42:09.328Z,4.74
2018-01-19T11:43:09.200Z,4.79
2018-01-19T11:44:09.118Z,4.68
2018-01-19T11:45:09.056Z,4.61
2018-01-19T11:46:08.999Z,4.69
2018-01-19T11:47:08.963Z,4.68
2018-01-19T11:48:08.850Z,4.69
2018-01-19T11:49:08.734Z,4.65
2018-01-19T11:50:08.703Z,4.69
2018-01-19T11:51:08.536Z,4.73
2018-01-19T11:52:08.487Z,4.73
2018-01-19T11:53:08.434Z,4.74
2018-01-19T11:54:08.288Z,4.73
2018-01-19T11:55:08.304Z,4.79
2018-01-19T11:56:08.120Z,4.76
2018-01-19T11:57:08.066Z,4.72
2018-01-19T11:58:07.970Z,4.66
2018-01-19T11:59:07.869Z,4.72
2018-01-19T12:00:07.812Z,4.68
2018-01-19T12:01:07.731Z,4.69
2018-01-19T12:02:07.623Z,4.61
2018-01-19T12:03:07.536Z,4.68
2018-01-19T12:04:07.461Z,4.66
2018-01-19T12:05:07.385Z,4.62
2018-01-19T12:06:07.291Z,4.54
2018-01-19T12:07:07.275Z,4.56
2018-01-19T12:08:07.183Z,4.47
2018-01-19T12:09:07.044Z,4.50
2018-01-19T12:10:06.988Z,4.44
2018-01-19T12:11:06.902Z,4.47
2018-01-19T12:12:06.853Z,4.44
2018-01-19T12:13:06.760Z,4.44
2018-01-19T12:14:06.628Z,4.46
2018-01-19T12:15:06.540Z,4.50
2018-01-19T12:16:06.457Z,4.50
2018-01-19T12:17:06.400Z,4.46
2018-01-19T12:18:06.307Z,4.48
2018-01-19T12:19:06.221Z,4.47
2018-01-19T12:20:06.185Z,4.48
2018-01-19T12:21:06.106Z,4.46
2018-01-19T12:22:05.990Z,4.48
2018-01-19T12:23:05.899Z,4.50
2018-01-19T12:24:05.797Z,4.43
2018-01-19T12:25:05.741Z,4.41
2018-01-19T12:26:05.632Z,4.40
2018-01-19T12:27:05.539Z,4.34
2018-01-19T12:28:05.459Z,4.34
2018-01-19T12:29:05.405Z,4.34
2018-01-19T12:30:05.294Z,4.34
2018-01-19T12:31:05.203Z,4.40
2018-01-19T12:32:05.146Z,4.30
2018-01-19T12:33:05.086Z,4.28
2018-01-19T12:34:04.984Z,4.36
2018-01-19T12:35:04.882Z,4.34
2018-01-19T12:36:04.814Z,4.29
2018-01-19T12:37:04.707Z,4.29
2018-01-19T12:38:04.626Z,4.38
2018-01-19T12:39:04.575Z,4.36
2018-01-19T12:40:04.456Z,4.43
2018-01-19T12:41:04.387Z,4.36
2018-01-19T12:42:04.306Z,4.36
2018-01-19T12:43:04.244Z,4.34
2018-01-19T12:44:04.132Z,4.38
2018-01-19T12:45:04.095Z,4.36
2018-01-19T12:46:03.979Z,4.38
2018-01-19T12:47:03.903Z,4.37
2018-01-19T12:48:03.817Z,4.41
2018-01-19T12:49:03.757Z,4.34
2018-01-19T12:50:03.652Z,4.46
2018-01-19T12:51:03.538Z,4.47
2018-01-19T12:52:03.475Z,4.43
2018-01-19T12:53:03.395Z,4.46
2018-01-19T12:54:03.304Z,4.48
2018-01-19T12:55:03.210Z,4.47
2018-01-19T12:56:03.145Z,4.50
2018-01-19T12:57:03.110Z,4.43
2018-01-19T12:58:03.022Z,4.48
2018-01-19T12:59:02.895Z,4.46
2018-01-19T13:00:02.825Z,4.48
2018-01-19T13:01:02.711Z,4.58
2018-01-19T13:02:02.665Z,4.54
2018-01-19T13:03:02.589Z,4.52
2018-01-19T13:04:02.534Z,4.50
2018-01-19T13:05:02.391Z,4.58
2018-01-19T13:06:02.300Z,4.59
2018-01-19T13:07:02.307Z,4.55
2018-01-19T13:08:02.149Z,4.58
2018-01-19T13:09:02.072Z,4.58
2018-01-19T13:10:02.000Z,4.54
2018-01-19T13:11:01.879Z,4.55
2018-01-19T13:12:01.796Z,4.54
2018-01-19T13:13:01.715Z,4.54
2018-01-19T13:14:01.633Z,4.59
2018-01-19T13:15:01.567Z,4.54
2018-01-19T13:16:01.511Z,4.56
2018-01-19T13:17:01.393Z,4.55